createdAt,value
2023-03-02T05:38:57.967Z,-1.09
2023-03-02T05:41:24.956Z,-0.96
2023-03-02T05:43:51.715Z,-0.85
2023-03-02T05:46:20.395Z,-0.74
2023-03-02T05:48:48.355Z,-0.65
2023-03-02T05:51:20.535Z,-0.57
2023-03-02T05:53:47.368Z,-0.49
2023-03-02T05:56:14.165Z,-0.43
2023-03-02T05:58:40.885Z,-0.35
2023-03-02T06:01:10.613Z,-0.29
2023-03-02T06:03:37.722Z,-0.23
2023-03-02T06:06:04.801Z,-0.16
2023-03-02T06:08:31.772Z,-0.08
2023-03-02T06:10:59.323Z,-0.02
2023-03-02T06:13:26.130Z,0.04
2023-03-02T06:15:52.907Z,0.10
2023-03-02T06:18:20.767Z,0.17
2023-03-02T06:20:48.914Z,0.24
2023-03-02T06:23:18.864Z,0.32
2023-03-02T06:25:48.111Z,0.41
2023-03-02T06:28:15.748Z,0.47
2023-03-02T06:30:42.721Z,0.53
2023-03-02T06:33:10.228Z,0.58
2023-03-02T06:35:58.603Z,0.63
2023-03-02T06:38:40.324Z,0.71
2023-03-02T06:42:05.425Z,0.75
2023-03-02T06:44:53.613Z,0.83
2023-03-02T06:48:14.495Z,0.93
2023-03-02T06:51:36.682Z,1.04
2023-03-02T06:54:28.339Z,1.15
2023-03-02T06:57:23.026Z,1.21
2023-03-02T06:59:57.729Z,1.26
2023-03-02T07:02:25.724Z,1.31
2023-03-02T07:04:59.199Z,1.38
2023-03-02T07:07:25.747Z,1.43
2023-03-02T07:09:52.882Z,1.48
2023-03-02T07:12:19.839Z,1.55
2023-03-02T07:14:54.191Z,1.63
2023-03-02T07:17:23.321Z,1.67
2023-03-02T07:20:15.556Z,1.73
2023-03-02T07:22:49.498Z,1.77
2023-03-02T07:25:18.975Z,1.79
2023-03-02T07:27:48.952Z,1.82
2023-03-02T07:30:20.419Z,1.84
2023-03-02T07:32:47.678Z,1.90
2023-03-02T07:35:16.560Z,1.96
2023-03-02T07:37:43.839Z,2.04
2023-03-02T07:40:11.517Z,2.11
2023-03-02T07:42:38.578Z,2.16
2023-03-02T07:45:08.259Z,2.23
2023-03-02T07:47:38.428Z,2.32
2023-03-02T07:50:06.699Z,2.41
2023-03-02T07:52:34.459Z,2.50
2023-03-02T07:55:01.370Z,2.53
2023-03-02T07:57:28.248Z,2.57
2023-03-02T07:59:55.115Z,2.67
2023-03-02T08:02:22.417Z,2.77
2023-03-02T08:04:59.250Z,2.85
2023-03-02T08:07:42.404Z,2.97
2023-03-02T08:10:33.423Z,3.06
2023-03-02T08:13:26.258Z,3.14
2023-03-02T08:16:23.591Z,3.23
2023-03-02T08:19:33.434Z,3.29
2023-03-02T08:22:19.701Z,3.34
2023-03-02T08:24:48.948Z,3.41
2023-03-02T08:27:22.109Z,3.48
2023-03-02T08:29:48.747Z,3.58
2023-03-02T08:32:18.736Z,3.65
2023-03-02T08:34:51.003Z,3.66
2023-03-02T08:37:26.783Z,3.69
2023-03-02T08:39:53.675Z,3.75
2023-03-02T08:42:23.688Z,3.78
2023-03-02T08:44:50.982Z,3.79
2023-03-02T08:47:18.008Z,3.82
2023-03-02T08:49:48.015Z,3.88
2023-03-02T08:52:15.703Z,3.91
2023-03-02T08:54:43.944Z,3.95
2023-03-02T08:57:13.427Z,3.97
2023-03-02T09:00:32.962Z,4.06
2023-03-02T09:03:57.600Z,4.10
2023-03-02T09:07:08.849Z,4.16
2023-03-02T09:10:38.111Z,4.25
2023-03-02T09:13:45.553Z,4.33
2023-03-02T09:16:31.274Z,4.39
2023-03-02T09:20:25.527Z,4.48
2023-03-02T09:23:28.666Z,4.57
2023-03-02T09:25:55.409Z,4.61
2023-03-02T09:28:23.079Z,4.63
2023-03-02T09:30:56.569Z,4.66
2023-03-02T09:33:24.967Z,4.71
2023-03-02T09:35:52.745Z,4.77
2023-03-02T09:38:20.176Z,4.83
2023-03-02T09:40:53.674Z,4.90
2023-03-02T09:43:42.605Z,4.96
2023-03-02T09:46:31.687Z,4.98
2023-03-02T09:49:17.231Z,4.97
2023-03-02T09:52:16.025Z,5.00
2023-03-02T09:55:22.518Z,5.01
2023-03-02T09:57:49.772Z,5.03
2023-03-02T10:00:25.077Z,5.05
2023-03-02T10:03:16.486Z,5.09
2023-03-02T10:05:45.467Z,5.11
2023-03-02T10:08:20.635Z,5.16
2023-03-02T10:11:22.782Z,5.21
2023-03-02T10:14:00.388Z,5.30
2023-03-02T10:16:32.841Z,5.30
2023-03-02T10:19:09.694Z,5.28
2023-03-02T10:21:47.025Z,5.36
2023-03-02T10:24:33.678Z,5.57
2023-03-02T10:27:18.521Z,5.88
2023-03-02T10:29:45.354Z,6.13
2023-03-02T10:32:23.764Z,6.29
2023-03-02T10:34:52.914Z,6.62
2023-03-02T10:37:24.486Z,7.06
2023-03-02T10:39:52.526Z,7.54
2023-03-02T10:42:22.162Z,7.96
2023-03-02T10:45:28.728Z,8.38
2023-03-02T10:48:13.990Z,8.84
2023-03-02T10:50:41.932Z,9.16
2023-03-02T10:53:18.082Z,9.42
2023-03-02T10:55:49.684Z,9.69
2023-03-02T10:58:25.186Z,9.93
2023-03-02T11:01:05.614Z,10.20
2023-03-02T11:03:34.022Z,10.55
2023-03-02T11:06:19.917Z,10.75
2023-03-02T11:08:46.658Z,11.05
2023-03-02T11:11:22.178Z,11.40
2023-03-02T11:13:49.675Z,11.73
2023-03-02T11:16:16.895Z,11.90
2023-03-02T11:18:53.586Z,11.98
2023-03-02T11:21:31.800Z,11.92
2023-03-02T11:24:05.980Z,11.78
2023-03-02T11:26:43.193Z,11.81
2023-03-02T11:29:28.447Z,11.88
2023-03-02T11:32:22.020Z,11.88
2023-03-02T11:35:21.040Z,11.75
2023-03-02T11:37:51.070Z,11.67
2023-03-02T11:40:37.020Z,11.63
2023-03-02T11:43:04.945Z,11.60
2023-03-02T11:45:37.333Z,11.61
2023-03-02T11:48:19.430Z,11.39
2023-03-02T11:50:50.747Z,11.22
2023-03-02T11:53:18.051Z,11.10
2023-03-02T11:55:50.842Z,10.98
2023-03-02T11:58:28.983Z,10.85
2023-03-02T12:00:55.754Z,10.81
2023-03-02T12:03:30.163Z,10.55
2023-03-02T12:06:00.398Z,10.32
2023-03-02T12:08:43.178Z,10.32
2023-03-02T12:11:16.266Z,10.43
2023-03-02T12:13:49.028Z,10.58
2023-03-02T12:16:18.631Z,10.60
2023-03-02T12:18:48.961Z,10.44
2023-03-02T12:21:20.695Z,10.38
2023-03-02T12:23:50.487Z,10.38
2023-03-02T12:26:20.076Z,10.46
2023-03-02T12:29:10.500Z,10.76
2023-03-02T12:31:41.368Z,11.01
2023-03-02T12:34:20.459Z,11.05
2023-03-02T12:36:47.228Z,10.89
2023-03-02T12:39:23.200Z,10.79
2023-03-02T12:41:52.689Z,10.72
2023-03-02T12:44:33.319Z,10.63
2023-03-02T12:47:01.060Z,10.52
2023-03-02T12:50:01.526Z,10.44
2023-03-02T12:52:33.273Z,10.25
2023-03-02T12:55:17.067Z,10.08
2023-03-02T12:57:54.426Z,10.10
2023-03-02T13:00:24.254Z,10.09
2023-03-02T13:02:52.701Z,9.82
2023-03-02T13:05:22.427Z,9.49
2023-03-02T13:08:07.741Z,9.20
2023-03-02T13:10:39.801Z,9.06
2023-03-02T13:13:37.777Z,9.00
2023-03-02T13:16:28.070Z,8.91
2023-03-02T13:18:56.753Z,8.79
2023-03-02T13:21:30.053Z,8.70
2023-03-02T13:23:56.715Z,8.62
2023-03-02T13:26:34.238Z,8.58
2023-03-02T13:29:06.674Z,8.62
2023-03-02T13:31:34.061Z,8.94
2023-03-02T13:34:00.841Z,9.26
2023-03-02T13:36:35.203Z,9.33
2023-03-02T13:39:03.254Z,9.43
